Knoxville, TN (37914)

12:48 AM EST on December 09, 2016 (GMT -0500)
Holston Hills | | Change Station

Elev 1070 ft 36.00 °N, 83.84 °W | Updated 9 seconds ago

Partly Cloudy
Partly Cloudy
27.1 °F
Feels Like 27 °F
N
0.0
Wind Variable Wind from SSE
Gusts 0.0 mph

Today
High -- | Low -- °F
--% Chance of Precip.
Yesterday
High -- | Low -- °F
Precip. -- in
Pressure 30.42 in
Visibility 10.0 miles
Clouds Scattered Clouds 25000 ft
Windchill 27 °F
Dew Point 15 °F
Humidity 60%
Rainfall 0.00 in
Snow Depth Not available.
7:34 AM 5:21 PM
Waxing Gibbous, 70% visible
METAR KTYS 090453Z 33003KT 10SM SCT250 M01/M08 A3040 RMK AO2 SLP299 T10111078 400671011
Pressure 30.42 in
Visibility 10.0 miles
Clouds Scattered Clouds 25000 ft
Windchill 27 °F
Dew Point 15 °F
Humidity 60%
Rainfall 0.00 in
Snow Depth Not available.
7:34 AM 5:21 PM
Waxing Gibbous, 70% visible
METAR KTYS 090453Z 33003KT 10SM SCT250 M01/M08 A3040 RMK AO2 SLP299 T10111078 400671011

10-Day Weather Forecast

Almanac

Astronomy

Dec. 09, 2016 Rise Set
Actual Time
Civil Twilight
Nautical Twilight
Astronomical Twilight
Moon
Length of Visible Light
Length of Day
Tomorrow will be .
, % of the Moon is Illuminated

Today's Extremes

State Highs State Lows

Community

WunderPhotos

Upload Photos

1,956,370 photos uploaded!

WunderBlog® & News

Nearby

Air Quality

  Air Quality AQ Index Pollutant
Not available.

Snow Depth

Station Depth Elevation

Earthquake Activity

City Distance Mag. Time & Date
Minimum magnitude displayed is 2.5.

Coastal Water Temperatures

Place Temperature

Stations

Nearby Weather Stations

Station Location Temp. Windchill Dew Point Humidity Wind Precip. Elev Updated Type
                   

Watches & Warnings

There are currently no watches in effect.